Current Weather

San Antonio Intl

San Antonio, Texas (KSAT)

Report from: Saturday, February 4, 2023 10:51 PM CST
Current time: Saturday, February 4, 2023 11:29 PM CST

Nearby weather
Weather history
Weather forecast

Temperature8.3°C (46.9°F)
Wind chill7.2°C (44.9°F)
Dew point5.6°C (42.1°F)
Winds 4 kts (2.1 m/s, 4.6 mph) Northwest (310°)
Visibility10 mi. (16.1 km)
Clouds Sky clear
Altimeter30.26 in.Hg (1025 mB)
Relative humidity83 %
Density altitude-1,060 ft. (-323 m)
Sea-level pressure102.4 kPa (1024 mB, 30.24 in.Hg)
Remarks Automated weather observing station with precipitation discriminator
Flight conditions Visual Meteorological Conditions
Raw dataKSAT 050451Z 31004KT 10SM CLR 08/06 A3026 RMK AO2 SLP239 T00830056
An unhandled exception has occurred. See browser dev tools for details. Reload 🗙